Nordic Zenith — A8WZ7 — position and weather

sailwx.info

Track history (hours):
 
Tides and Currents Weather Stations Pressure Air Temp Water Temp Dewpoint Dewpoint Depression Visibility Wind Speed Wind Dir Waves Ship Positions

Nordic Zenith

Last reported at 2017-Oct-03 23:49 UTC. Time now 2017-Nov-19 10:24 UTC.
Position N 37°57' W 073°50'.
Warning: this ship's position is 46 days out of date.

Length 274 m; draft 10 m.

Type: Tanker. MMSI: 636014869.

Date/timePositionNaut miles runAvg speedWind from/ knotsBaromVisibWave heightAir tempDewpointWater temp
2017-Oct-03 23:49N 37°57' W 073°50'612.0
2017-Oct-03 23:19N 37°59' W 073°57'412.9
2017-Oct-03 22:59N 38°02' W 074°01'813.0
2017-Oct-03 22:22N 38°06' W 074°10'612.8
2017-Oct-03 21:56N 38°10' W 074°15'512.9
2017-Oct-03 21:30N 38°13' W 074°21'812.9
2017-Oct-03 20:52N 38°18' W 074°29'612.7
2017-Oct-03 20:24N 38°21' W 074°35'613.2
2017-Oct-03 19:59N 38°25' W 074°41'913.1
2017-Oct-03 19:20N 38°31' W 074°48'1013.8
2017-Oct-03 18:38N 38°39' W 074°55'514.5
2017-Oct-03 18:16N 38°44' W 074°59'414.6
2017-Oct-03 17:58N 38°47' W 075°02'912.9
2017-Oct-03 17:16N 38°56' W 075°06'415.8
2017-Oct-03 17:00N 38°59' W 075°08'815.6
2017-Oct-03 16:30N 39°06' W 075°12'714.9
2017-Oct-03 16:00N 39°13' W 075°18'815.2
2017-Oct-03 15:30N 39°19' W 075°24'714.5
2017-Oct-03 15:00N 39°24' W 075°30'1010.4
2017-Oct-03 14:01N 39°34' W 075°33'5 9.8
2017-Oct-03 13:30N 39°39' W 075°33'510.4
2017-Oct-03 13:00N 39°44' W 075°30'4 8.7
2017-Oct-03 12:30N 39°47' W 075°27'3 5.1
2017-Oct-03 11:59N 39°49' W 075°24'0 0.4
2017-Oct-03 11:29N 39°48' W 075°24'0 0.2
2017-Oct-03 10:58N 39°49' W 075°24'0 0.1
2017-Oct-03 10:29N 39°49' W 075°24'0 0.1
2017-Oct-03 09:59N 39°49' W 075°24'0 0.1
2017-Oct-03 09:29N 39°49' W 075°24'0 0.0
2017-Oct-03 08:59N 39°49' W 075°24'0 0.0
2017-Oct-03 08:29N 39°49' W 075°24'0 0.0
2017-Oct-03 07:59N 39°49' W 075°24'0 0.0
2017-Oct-03 07:29N 39°49' W 075°24'0 0.0
2017-Oct-03 06:59N 39°49' W 075°24'0 0.0
2017-Oct-03 06:29N 39°49' W 075°24'0 0.0
2017-Oct-03 05:59N 39°49' W 075°24'0 0.0
2017-Oct-03 05:29N 39°49' W 075°24'0 0.3
2017-Oct-03 04:59N 39°49' W 075°24'0 0.3
2017-Oct-03 04:29N 39°49' W 075°24'0 0.1
2017-Oct-03 03:59N 39°49' W 075°24'0 0.0
2017-Oct-03 03:29N 39°49' W 075°24'0 0.0
2017-Oct-03 02:59N 39°49' W 075°24'0 0.0
2017-Oct-03 02:29N 39°49' W 075°24'0 0.0
2017-Oct-03 01:59N 39°49' W 075°24'0 0.1
2017-Oct-03 01:31N 39°49' W 075°24'2 3.9
2017-Oct-03 01:00N 39°50' W 075°22'5 9.5
2017-Oct-03 00:30N 39°51' W 075°16'2 4.7
2017-Oct-03 00:00N 39°52' W 075°13'0 0.0
2017-Oct-02 23:30N 39°52' W 075°13'0 0.0
2017-Oct-02 23:00N 39°52' W 075°13'0 0.0
2017-Oct-02 22:30N 39°52' W 075°13'0 0.0
2017-Oct-02 22:00N 39°52' W 075°13'0 0.0
2017-Oct-02 21:30N 39°52' W 075°13'0 0.0
2017-Oct-02 21:00N 39°52' W 075°13'0 0.0
2017-Oct-02 20:30N 39°52' W 075°13'0 0.0
2017-Oct-02 20:00N 39°52' W 075°13'0 0.0
2017-Oct-02 19:30N 39°52' W 075°13'0 0.0
2017-Oct-02 19:00N 39°52' W 075°13'0 0.0
2017-Oct-02 18:30N 39°52' W 075°13'0 0.0
2017-Oct-02 18:00N 39°52' W 075°13'0 0.0
2017-Oct-02 17:30N 39°52' W 075°13'0 0.0
2017-Oct-02 17:00N 39°52' W 075°13'0 0.0
2017-Oct-02 16:30N 39°52' W 075°13'0 0.0
2017-Oct-02 16:00N 39°52' W 075°13'0 0.0
2017-Oct-02 15:30N 39°52' W 075°13'0 0.0
2017-Oct-02 15:00N 39°52' W 075°13'0 0.0
2017-Oct-02 14:30N 39°52' W 075°13'0 0.0
2017-Oct-02 14:00N 39°52' W 075°13'0 0.0
2017-Oct-02 13:30N 39°52' W 075°13'0 0.0
2017-Oct-02 13:00N 39°52' W 075°13'0 0.0
2017-Oct-02 12:30N 39°52' W 075°13'0 0.0
2017-Oct-02 12:00N 39°52' W 075°13'0 0.0
2017-Oct-02 11:30N 39°52' W 075°13'0 0.0
2017-Oct-02 11:00N 39°52' W 075°13'0 0.0
2017-Oct-02 10:30N 39°52' W 075°13'0 0.0
2017-Oct-02 10:00N 39°52' W 075°13'0 0.0
2017-Oct-02 09:30N 39°52' W 075°13'0 0.0
2017-Oct-02 09:00N 39°52' W 075°13'0 0.0
2017-Oct-02 08:30N 39°52' W 075°13'0 0.0
2017-Oct-02 08:00N 39°52' W 075°13'0 0.0
2017-Oct-02 07:30N 39°52' W 075°13'0 0.0
2017-Oct-02 07:00N 39°52' W 075°13'0 0.0
2017-Oct-02 06:30N 39°52' W 075°13'0 0.0
2017-Oct-02 06:00N 39°52' W 075°13'0 0.0
2017-Oct-02 05:30N 39°52' W 075°13'0 0.0
2017-Oct-02 05:00N 39°52' W 075°13'0 0.0
2017-Oct-02 04:30N 39°52' W 075°13'0 0.0
2017-Oct-02 04:00N 39°52' W 075°13'0 0.0
2017-Oct-02 03:30N 39°52' W 075°13'0 0.0
2017-Oct-01 14:40N 39°52' W 075°13'0 0.0
2017-Oct-01 14:30N 39°52' W 075°13'1 2.6
2017-Oct-01 14:00N 39°51' W 075°14'4 7.6
2017-Oct-01 13:30N 39°51' W 075°19'510.4
2017-Oct-01 13:00N 39°48' W 075°25'611.4
2017-Oct-01 12:30N 39°44' W 075°30'510.8
2017-Oct-01 12:00N 39°39' W 075°33'510.7
2017-Oct-01 11:30N 39°34' W 075°33'612.5
2017-Oct-01 11:00N 39°28' W 075°34'713.5
2017-Oct-01 10:30N 39°22' W 075°28'713.4
2017-Oct-01 10:00N 39°17' W 075°22'612.9
2017-Oct-01 09:30N 39°12' W 075°17'612.7
2017-Oct-01 09:00N 39°07' W 075°13'612.4
2017-Oct-01 08:30N 39°01' W 075°09'612.3
2017-Oct-01 08:00N 38°56' W 075°06'4 8.1
2017-Oct-01 07:30N 38°52' W 075°05'3 5.7
2017-Oct-01 07:00N 38°54' W 075°08'3 5.7
2017-Oct-01 06:30N 38°56' W 075°10'2 3.1
2017-Oct-01 05:59N 38°57' W 075°11'0 0.2
2017-Oct-01 05:29N 38°57' W 075°11'0 0.0
2017-Oct-01 04:59N 38°57' W 075°11'0 0.0
2017-Oct-01 04:29N 38°57' W 075°11'0 0.0
2017-Oct-01 03:41N 38°57' W 075°11'0 0.1
2017-Oct-01 03:29N 38°57' W 075°11'0 0.0
2017-Oct-01 02:59N 38°57' W 075°11'0 0.0
2017-Sep-30 01:59N 38°57' W 075°11'0 0.0
2017-Sep-30 01:29N 38°57' W 075°11'0 0.0
2017-Sep-30 00:59N 38°57' W 075°11'0 0.0
2017-Sep-30 00:29N 38°57' W 075°11'0 0.0
2017-Sep-29 23:56N 38°57' W 075°11'0 0.0
2017-Sep-29 23:29N 38°57' W 075°11'0 0.1
2017-Sep-29 22:59N 38°57' W 075°11'0 0.1
2017-Sep-29 20:11N 38°57' W 075°11'0 0.1
2017-Sep-29 19:53N 38°57' W 075°11'0 0.0
2017-Sep-29 16:53N 38°57' W 075°11'0 0.4
2017-Sep-29 16:29N 38°57' W 075°11'0 0.3
2017-Sep-29 15:59N 38°57' W 075°11'0 0.1
2017-Sep-29 15:29N 38°57' W 075°11'0 0.0
2017-Sep-29 14:59N 38°57' W 075°11'0 0.0
2017-Sep-29 14:29N 38°57' W 075°11'0 0.0
2017-Sep-29 13:59N 38°57' W 075°11'0 0.0
2017-Sep-29 13:26N 38°57' W 075°11'0 0.0
2017-Sep-29 12:59N 38°57' W 075°11'0 0.0
2017-Sep-29 12:29N 38°57' W 075°11'0 0.0
2017-Sep-29 11:59N 38°57' W 075°11'0 0.0
2017-Sep-29 11:29N 38°57' W 075°11'0 0.0
2017-Sep-29 10:59N 38°57' W 075°11'0 0.0
2017-Sep-29 10:26N 38°57' W 075°11'0 0.0
2017-Sep-29 09:59N 38°57' W 075°11'0 0.0
2017-Sep-29 09:29N 38°57' W 075°11'0 0.1
2017-Sep-29 08:59N 38°57' W 075°11'0 0.1
2017-Sep-29 08:29N 38°57' W 075°11'0 0.1
2017-Sep-29 07:59N 38°57' W 075°11'0 0.0
2017-Sep-29 07:29N 38°57' W 075°11'0 0.0
2017-Sep-29 06:56N 38°57' W 075°11'0 0.1
2017-Sep-29 06:29N 38°57' W 075°11'0 0.0
2017-Sep-29 05:50N 38°57' W 075°11'0 0.1
2017-Sep-29 05:29N 38°57' W 075°11'0 0.1
2017-Sep-29 04:59N 38°57' W 075°11'0 0.1
2017-Sep-29 04:26N 38°57' W 075°11'0 0.0
2017-Sep-29 03:59N 38°57' W 075°11'0 0.0
2017-Sep-29 03:26N 38°57' W 075°11'0 0.0
2017-Sep-29 02:56N 38°57' W 075°11'0 0.0
2017-Sep-29 02:29N 38°57' W 075°11'0 0.0
2017-Sep-29 01:59N 38°57' W 075°11'0 0.0
2017-Sep-29 01:29N 38°57' W 075°11'0 0.0
2017-Sep-29 00:59N 38°57' W 075°11'0 0.0
2017-Sep-29 00:29N 38°57' W 075°11'0 0.0
2017-Sep-28 23:59N 38°57' W 075°11'0 0.0
2017-Sep-28 23:29N 38°57' W 075°11'0 0.0
2017-Sep-28 22:56N 38°57' W 075°11'0 0.0
2017-Sep-28 22:29N 38°57' W 075°11'0 0.1
2017-Sep-28 21:59N 38°57' W 075°11'0 0.1
2017-Sep-28 21:29N 38°57' W 075°11'0 0.1
2017-Sep-28 20:59N 38°57' W 075°11'0 0.0
2017-Sep-28 20:29N 38°57' W 075°11'0 0.2
2017-Sep-28 19:59N 38°57' W 075°11'0 0.1
2017-Sep-28 19:11N 38°57' W 075°11'0 0.1
2017-Sep-28 18:56N 38°57' W 075°11'0 0.0
2017-Sep-28 17:56N 38°57' W 075°11'0 0.2
2017-Sep-28 17:29N 38°57' W 075°11'0 0.1
2017-Sep-28 16:47N 38°57' W 075°11'0 0.2
2017-Sep-28 16:26N 38°57' W 075°11'0 0.1
2017-Sep-28 15:56N 38°57' W 075°11'0 0.1
2017-Sep-28 15:29N 38°57' W 075°11'0 0.0
2017-Sep-28 14:59N 38°57' W 075°11'0 0.0
2017-Sep-28 14:29N 38°57' W 075°11'0 0.1
2017-Sep-28 13:59N 38°57' W 075°11'0 0.0
2017-Sep-28 13:29N 38°57' W 075°11'0 0.0
2017-Sep-28 12:59N 38°57' W 075°11'0 0.0
2017-Sep-28 12:29N 38°57' W 075°11'0 0.0
2017-Sep-28 11:56N 38°57' W 075°11'0 0.1
2017-Sep-28 11:29N 38°57' W 075°11'0 0.0
2017-Sep-28 10:59N 38°57' W 075°11'0 0.0
2017-Sep-28 10:29N 38°57' W 075°11'0 0.1
2017-Sep-28 09:59N 38°57' W 075°11'0 0.0
2017-Sep-28 09:29N 38°57' W 075°11'0 0.1
2017-Sep-28 08:53N 38°57' W 075°11'0 0.1
2017-Sep-28 08:23N 38°57' W 075°11'0 0.1
2017-Sep-28 07:59N 38°57' W 075°11'0 0.3
2017-Sep-28 07:29N 38°57' W 075°11'0 0.1
2017-Sep-28 06:56N 38°57' W 075°11'0 0.0
2017-Sep-28 06:29N 38°57' W 075°11'0 0.1
2017-Sep-28 05:59N 38°57' W 075°11'0 0.0
2017-Sep-28 05:29N 38°57' W 075°11'0 0.1
2017-Sep-28 04:59N 38°57' W 075°11'0 0.0
2017-Sep-28 04:23N 38°57' W 075°11'0 0.0
2017-Sep-28 03:53N 38°57' W 075°11'0 0.0
2017-Sep-28 03:29N 38°57' W 075°11'0 0.1
2017-Sep-28 02:59N 38°57' W 075°11'0 0.1
2017-Sep-28 02:29N 38°57' W 075°11'0 0.0
2017-Sep-28 01:56N 38°57' W 075°11'0 0.0
2017-Sep-28 01:29N 38°57' W 075°11'0 0.0
2017-Sep-28 00:56N 38°57' W 075°11'0 0.0
2017-Sep-28 00:29N 38°57' W 075°11'0 0.0
2017-Sep-27 23:59N 38°57' W 075°11'0 0.0
2017-Sep-27 23:29N 38°57' W 075°11'0 0.0
2017-Sep-27 22:56N 38°57' W 075°11'0 0.0
2017-Sep-27 22:29N 38°57' W 075°11'0 0.0
2017-Sep-27 21:59N 38°57' W 075°11'0 0.1
2017-Sep-27 21:29N 38°57' W 075°11'0 0.1
2017-Sep-27 20:59N 38°57' W 075°11'0 0.1
2017-Sep-27 20:26N 38°57' W 075°11'0 0.2
2017-Sep-27 19:59N 38°57' W 075°11'0 0.1
2017-Sep-27 19:26N 38°57' W 075°11'0 0.1
2017-Sep-27 18:53N 38°57' W 075°11'0 0.0
2017-Sep-27 18:29N 38°57' W 075°11'0 0.0
2017-Sep-27 17:59N 38°57' W 075°11'0 0.0
2017-Sep-27 17:29N 38°57' W 075°11'0 0.1
2017-Sep-27 16:59N 38°57' W 075°11'0 0.1
2017-Sep-27 16:26N 38°57' W 075°11'0 0.1
2017-Sep-27 15:59N 38°57' W 075°11'0 0.0
2017-Sep-27 15:29N 38°57' W 075°11'0 0.0
2017-Sep-27 14:53N 38°57' W 075°11'0 0.1
2017-Sep-27 14:29N 38°57' W 075°11'0 0.1
2017-Sep-27 13:59N 38°57' W 075°11'0 0.1
2017-Sep-27 13:23N 38°57' W 075°11'0 0.1
2017-Sep-27 12:59N 38°57' W 075°11'0 0.0
2017-Sep-27 12:29N 38°57' W 075°11'0 0.0
2017-Sep-27 11:59N 38°57' W 075°11'0 0.0
2017-Sep-27 11:23N 38°57' W 075°11'0 0.0
2017-Sep-27 10:59N 38°57' W 075°11'0 0.0
2017-Sep-27 10:29N 38°57' W 075°11'0 0.0
2017-Sep-27 09:59N 38°57' W 075°11'0 0.0
2017-Sep-27 09:29N 38°57' W 075°11'0 0.0
2017-Sep-27 08:59N 38°57' W 075°11'0 0.0
2017-Sep-27 08:29N 38°57' W 075°11'0 0.1
2017-Sep-27 07:59N 38°57' W 075°11'0 0.1
2017-Sep-27 07:29N 38°57' W 075°11'0 0.0
2017-Sep-27 06:50N 38°57' W 075°11'0 0.0
2017-Sep-27 06:26N 38°57' W 075°11'0 0.1
2017-Sep-27 05:47N 38°57' W 075°11'0 0.1
2017-Sep-27 05:23N 38°57' W 075°11'0 0.1
2017-Sep-27 04:56N 38°57' W 075°11'0 0.0
2017-Sep-27 04:29N 38°57' W 075°11'0 0.1
2017-Sep-27 03:59N 38°57' W 075°11'0 0.1
2017-Sep-27 03:23N 38°57' W 075°11'0 0.1
2017-Sep-27 02:59N 38°57' W 075°11'0 0.1
2017-Sep-27 02:26N 38°57' W 075°11'0 0.1
2017-Sep-27 01:59N 38°57' W 075°11'0 0.1
2017-Sep-27 01:29N 38°57' W 075°11'0 0.0
2017-Sep-27 00:56N 38°57' W 075°11'0 0.1
2017-Sep-27 00:26N 38°57' W 075°11'0 0.1
2017-Sep-26 23:56N 38°57' W 075°11'0 0.1
2017-Sep-26 23:29N 38°57' W 075°11'0 0.1
2017-Sep-26 22:56N 38°57' W 075°11'0 0.0
2017-Sep-26 22:29N 38°57' W 075°11'0 0.0
2017-Sep-26 21:56N 38°57' W 075°11'0 0.1
2017-Sep-26 21:26N 38°57' W 075°11'0 0.0
2017-Sep-26 20:56N 38°57' W 075°11'0 0.1
2017-Sep-26 20:29N 38°57' W 075°11'0 0.1
2017-Sep-26 19:59N 38°57' W 075°11'0 0.2
2017-Sep-26 19:29N 38°57' W 075°11'0 0.1
2017-Sep-26 18:59N 38°57' W 075°11'0 0.1
2017-Sep-26 18:29N 38°57' W 075°11'0 0.0
2017-Sep-26 17:59N 38°57' W 075°11'0 0.0
2017-Sep-26 17:23N 38°57' W 075°11'0 0.0
2017-Sep-26 16:53N 38°57' W 075°11'0 0.0
2017-Sep-26 16:23N 38°57' W 075°11'0 0.0
2017-Sep-26 15:56N 38°57' W 075°11'0 0.0
2017-Sep-26 15:26N 38°57' W 075°11'0 0.0
2017-Sep-26 14:53N 38°57' W 075°11'0 0.1
2017-Sep-26 14:17N 38°57' W 075°11'0 0.1
2017-Sep-26 13:56N 38°57' W 075°11'0 0.1
2017-Sep-26 13:29N 38°57' W 075°11'0 0.1
2017-Sep-26 12:59N 38°57' W 075°11'0 0.1
2017-Sep-26 12:29N 38°57' W 075°11'0 0.0
2017-Sep-26 11:59N 38°57' W 075°11'0 0.1
2017-Sep-26 11:29N 38°57' W 075°11'0 0.1
2017-Sep-26 10:56N 38°57' W 075°11'0 0.0
2017-Sep-26 10:29N 38°57' W 075°11'0 0.0
2017-Sep-26 09:56N 38°57' W 075°11'0 0.0
2017-Sep-26 09:29N 38°57' W 075°11'0 0.1
2017-Sep-26 08:59N 38°57' W 075°11'0 0.1
2017-Sep-26 08:26N 38°57' W 075°11'0 0.1
2017-Sep-26 07:59N 38°57' W 075°11'0 0.4
2017-Sep-26 07:26N 38°57' W 075°11'0 0.2
2017-Sep-26 06:56N 38°57' W 075°11'0 0.1
2017-Sep-26 06:29N 38°57' W 075°11'0 0.0
2017-Sep-26 05:59N 38°57' W 075°11'0 0.0
2017-Sep-26 05:11N 38°57' W 075°11'0 0.0
2017-Sep-26 04:59N 38°57' W 075°11'0 0.0
2017-Sep-26 04:29N 38°57' W 075°11'0 0.0
2017-Sep-26 03:56N 38°57' W 075°11'0 0.0
2017-Sep-26 03:29N 38°57' W 075°11'0 0.0
2017-Sep-26 02:59N 38°57' W 075°11'0 0.1
2017-Sep-26 02:29N 38°57' W 075°11'0 0.0
2017-Sep-26 01:59N 38°57' W 075°11'0 0.1
2017-Sep-26 01:29N 38°57' W 075°11'0 0.2
2017-Sep-26 00:59N 38°57' W 075°11'0 0.3
2017-Sep-26 00:29N 38°57' W 075°11'0 0.1
2017-Sep-25 23:59N 38°57' W 075°11'0 0.1
2017-Sep-25 23:29N 38°57' W 075°11'0 0.0
2017-Sep-25 22:59N 38°57' W 075°11'0 0.0
2017-Sep-25 22:29N 38°57' W 075°11'0 0.1
2017-Sep-25 21:59N 38°57' W 075°11'0 0.1
2017-Sep-25 21:29N 38°57' W 075°11'0 0.0
2017-Sep-25 20:59N 38°57' W 075°11'0 0.0
2017-Sep-25 20:29N 38°57' W 075°11'0 0.2
2017-Sep-25 19:59N 38°57' W 075°11'0 0.3
2017-Sep-25 19:29N 38°57' W 075°11'0 0.1
2017-Sep-25 18:59N 38°57' W 075°11'0 0.1
2017-Sep-25 16:47N 38°57' W 075°11'0 0.1
2017-Sep-25 16:29N 38°57' W 075°11'0 0.0
2017-Sep-25 15:47N 38°57' W 075°11'0 0.0
2017-Sep-25 15:23N 38°57' W 075°11'0 0.0
2017-Sep-25 14:59N 38°57' W 075°11'0 0.0
2017-Sep-25 14:29N 38°57' W 075°11'0 0.0
2017-Sep-25 13:59N 38°57' W 075°11'0 0.1
2017-Sep-25 13:29N 38°57' W 075°11'0 0.1
2017-Sep-25 12:59N 38°57' W 075°11'0 0.2
2017-Sep-25 12:29N 38°57' W 075°11'0 0.3
2017-Sep-25 11:59N 38°57' W 075°11'0 0.1
2017-Sep-25 11:29N 38°57' W 075°11'0 0.0
2017-Sep-25 10:59N 38°57' W 075°11'0 0.0
2017-Sep-25 10:29N 38°57' W 075°11'0 0.0
2017-Sep-25 09:59N 38°57' W 075°11'0 0.0
2017-Sep-25 09:29N 38°57' W 075°11'0 0.0
2017-Sep-25 08:59N 38°57' W 075°11'0 0.0
2017-Sep-25 08:29N 38°57' W 075°11'0 0.0
2017-Sep-25 07:59N 38°57' W 075°11'0 0.0
2017-Sep-25 07:29N 38°57' W 075°11'0 0.1
2017-Sep-25 06:56N 38°57' W 075°11'0 0.3
2017-Sep-25 06:29N 38°57' W 075°11'0 0.2
2017-Sep-25 05:59N 38°57' W 075°11'0 0.1
2017-Sep-25 05:26N 38°57' W 075°11'0 0.1
2017-Sep-25 04:59N 38°57' W 075°11'0 0.0
2017-Sep-25 04:29N 38°57' W 075°11'0 0.0
2017-Sep-25 03:59N 38°57' W 075°11'0 0.0
2017-Sep-25 03:29N 38°57' W 075°11'0 0.0
2017-Sep-25 02:56N 38°57' W 075°11'0 0.0
2017-Sep-25 02:29N 38°57' W 075°11'0 0.0
2017-Sep-25 01:56N 38°57' W 075°11'0 0.0
2017-Sep-25 01:29N 38°57' W 075°11'0 0.1
2017-Sep-25 00:59N 38°57' W 075°11'0 0.4
2017-Sep-25 00:26N 38°57' W 075°11'0 0.2
2017-Sep-24 23:59N 38°57' W 075°11'0 0.1
2017-Sep-24 23:26N 38°57' W 075°11'0 0.0
2017-Sep-24 22:59N 38°57' W 075°11'0 0.1
2017-Sep-24 22:29N 38°57' W 075°11'0 0.1
2017-Sep-24 21:59N 38°57' W 075°11'0 0.1
2017-Sep-24 21:29N 38°57' W 075°11'0 0.1
2017-Sep-24 20:59N 38°57' W 075°11'0 0.0
2017-Sep-24 20:26N 38°57' W 075°11'0 0.0
2017-Sep-24 19:59N 38°57' W 075°11'0 0.0
2017-Sep-24 19:29N 38°57' W 075°11'0 0.1
2017-Sep-24 18:59N 38°57' W 075°11'0 0.3
2017-Sep-24 18:20N 38°57' W 075°11'0 0.2
2017-Sep-24 17:59N 38°57' W 075°11'0 0.1
2017-Sep-24 16:53N 38°57' W 075°11'0 0.1
2017-Sep-24 16:26N 38°57' W 075°11'0 0.0
2017-Sep-24 15:59N 38°57' W 075°11'0 0.0
2017-Sep-24 15:29N 38°57' W 075°11'0 0.0
2017-Sep-24 14:50N 38°57' W 075°11'0 0.0
2017-Sep-24 14:29N 38°57' W 075°11'0 0.0
2017-Sep-24 13:59N 38°57' W 075°11'0 0.0
2017-Sep-24 13:29N 38°57' W 075°11'0 0.0
2017-Sep-24 12:59N 38°57' W 075°11'0 0.2
2017-Sep-24 12:29N 38°57' W 075°11'0 0.1
2017-Sep-24 11:59N 38°57' W 075°11'0 0.2
2017-Sep-24 11:29N 38°57' W 075°11'0 0.2
2017-Sep-24 10:59N 38°57' W 075°11'0 0.1
2017-Sep-24 10:23N 38°57' W 075°11'0 0.0
2017-Sep-24 09:56N 38°57' W 075°11'0 0.0
2017-Sep-24 09:29N 38°57' W 075°11'0 0.0
2017-Sep-24 08:59N 38°57' W 075°11'0 0.0
2017-Sep-24 08:29N 38°57' W 075°11'0 0.0
2017-Sep-24 07:59N 38°57' W 075°11'0 0.1
2017-Sep-24 07:29N 38°57' W 075°11'0 0.0
2017-Sep-24 06:59N 38°57' W 075°11'0 0.0
2017-Sep-24 06:29N 38°57' W 075°11'0 0.3
2017-Sep-24 05:59N 38°57' W 075°11'0 0.3
2017-Sep-24 05:26N 38°57' W 075°11'0 0.0
2017-Sep-24 04:59N 38°57' W 075°11'0 0.0
2017-Sep-24 04:29N 38°57' W 075°11'0 0.1
2017-Sep-24 03:59N 38°57' W 075°11'0 0.0
2017-Sep-24 03:29N 38°57' W 075°11'0 0.0
2017-Sep-24 02:59N 38°57' W 075°11'0 0.0
2017-Sep-24 02:29N 38°57' W 075°11'0 0.0
2017-Sep-24 01:59N 38°57' W 075°11'0 0.0
2017-Sep-24 01:29N 38°57' W 075°11'0 0.0
2017-Sep-24 00:59N 38°57' W 075°11'0 0.1
2017-Sep-24 00:26N 38°57' W 075°11'0 0.3
2017-Sep-23 23:59N 38°57' W 075°11'  
Track history (hours):
 
Tides and Currents Weather Stations Pressure Air Temp Water Temp Dewpoint Dewpoint Depression Visibility Wind Speed Wind Dir Waves Ship Positions

Nordic Zenith

Last reported at 2017-Oct-03 23:49 UTC. Time now 2017-Nov-19 10:24 UTC.
Position N 37°57' W 073°50'.
Warning: this ship's position is 46 days out of date.

Length 274 m; draft 10 m.

Type: Tanker. MMSI: 636014869.

Date/timePositionNaut miles runAvg speedWind from/ knotsBaromVisibWave heightAir tempDewpointWater temp
2017-Oct-03 23:49N 37°57' W 073°50'612.0
2017-Oct-03 23:19N 37°59' W 073°57'412.9
2017-Oct-03 22:59N 38°02' W 074°01'813.0
2017-Oct-03 22:22N 38°06' W 074°10'612.8
2017-Oct-03 21:56N 38°10' W 074°15'512.9
2017-Oct-03 21:30N 38°13' W 074°21'812.9
2017-Oct-03 20:52N 38°18' W 074°29'612.7
2017-Oct-03 20:24N 38°21' W 074°35'613.2
2017-Oct-03 19:59N 38°25' W 074°41'913.1
2017-Oct-03 19:20N 38°31' W 074°48'1013.8
2017-Oct-03 18:38N 38°39' W 074°55'514.5
2017-Oct-03 18:16N 38°44' W 074°59'414.6
2017-Oct-03 17:58N 38°47' W 075°02'912.9
2017-Oct-03 17:16N 38°56' W 075°06'415.8
2017-Oct-03 17:00N 38°59' W 075°08'815.6
2017-Oct-03 16:30N 39°06' W 075°12'714.9
2017-Oct-03 16:00N 39°13' W 075°18'815.2
2017-Oct-03 15:30N 39°19' W 075°24'714.5
2017-Oct-03 15:00N 39°24' W 075°30'1010.4
2017-Oct-03 14:01N 39°34' W 075°33'5 9.8
2017-Oct-03 13:30N 39°39' W 075°33'510.4
2017-Oct-03 13:00N 39°44' W 075°30'4 8.7
2017-Oct-03 12:30N 39°47' W 075°27'3 5.1
2017-Oct-03 11:59N 39°49' W 075°24'0 0.4
2017-Oct-03 11:29N 39°48' W 075°24'0 0.2
2017-Oct-03 10:58N 39°49' W 075°24'0 0.1
2017-Oct-03 10:29N 39°49' W 075°24'0 0.1
2017-Oct-03 09:59N 39°49' W 075°24'0 0.1
2017-Oct-03 09:29N 39°49' W 075°24'0 0.0
2017-Oct-03 08:59N 39°49' W 075°24'0 0.0
2017-Oct-03 08:29N 39°49' W 075°24'0 0.0
2017-Oct-03 07:59N 39°49' W 075°24'0 0.0
2017-Oct-03 07:29N 39°49' W 075°24'0 0.0
2017-Oct-03 06:59N 39°49' W 075°24'0 0.0
2017-Oct-03 06:29N 39°49' W 075°24'0 0.0
2017-Oct-03 05:59N 39°49' W 075°24'0 0.0
2017-Oct-03 05:29N 39°49' W 075°24'0 0.3
2017-Oct-03 04:59N 39°49' W 075°24'0 0.3
2017-Oct-03 04:29N 39°49' W 075°24'0 0.1
2017-Oct-03 03:59N 39°49' W 075°24'0 0.0
2017-Oct-03 03:29N 39°49' W 075°24'0 0.0
2017-Oct-03 02:59N 39°49' W 075°24'0 0.0
2017-Oct-03 02:29N 39°49' W 075°24'0 0.0
2017-Oct-03 01:59N 39°49' W 075°24'0 0.1
2017-Oct-03 01:31N 39°49' W 075°24'2 3.9
2017-Oct-03 01:00N 39°50' W 075°22'5 9.5
2017-Oct-03 00:30N 39°51' W 075°16'2 4.7
2017-Oct-03 00:00N 39°52' W 075°13'0 0.0
2017-Oct-02 23:30N 39°52' W 075°13'0 0.0
2017-Oct-02 23:00N 39°52' W 075°13'0 0.0
2017-Oct-02 22:30N 39°52' W 075°13'0 0.0
2017-Oct-02 22:00N 39°52' W 075°13'0 0.0
2017-Oct-02 21:30N 39°52' W 075°13'0 0.0
2017-Oct-02 21:00N 39°52' W 075°13'0 0.0
2017-Oct-02 20:30N 39°52' W 075°13'0 0.0
2017-Oct-02 20:00N 39°52' W 075°13'0 0.0
2017-Oct-02 19:30N 39°52' W 075°13'0 0.0
2017-Oct-02 19:00N 39°52' W 075°13'0 0.0
2017-Oct-02 18:30N 39°52' W 075°13'0 0.0
2017-Oct-02 18:00N 39°52' W 075°13'0 0.0
2017-Oct-02 17:30N 39°52' W 075°13'0 0.0
2017-Oct-02 17:00N 39°52' W 075°13'0 0.0
2017-Oct-02 16:30N 39°52' W 075°13'0 0.0
2017-Oct-02 16:00N 39°52' W 075°13'0 0.0
2017-Oct-02 15:30N 39°52' W 075°13'0 0.0
2017-Oct-02 15:00N 39°52' W 075°13'0 0.0
2017-Oct-02 14:30N 39°52' W 075°13'0 0.0
2017-Oct-02 14:00N 39°52' W 075°13'0 0.0
2017-Oct-02 13:30N 39°52' W 075°13'0 0.0
2017-Oct-02 13:00N 39°52' W 075°13'0 0.0
2017-Oct-02 12:30N 39°52' W 075°13'0 0.0
2017-Oct-02 12:00N 39°52' W 075°13'0 0.0
2017-Oct-02 11:30N 39°52' W 075°13'0 0.0
2017-Oct-02 11:00N 39°52' W 075°13'0 0.0
2017-Oct-02 10:30N 39°52' W 075°13'0 0.0
2017-Oct-02 10:00N 39°52' W 075°13'0 0.0
2017-Oct-02 09:30N 39°52' W 075°13'0 0.0
2017-Oct-02 09:00N 39°52' W 075°13'0 0.0
2017-Oct-02 08:30N 39°52' W 075°13'0 0.0
2017-Oct-02 08:00N 39°52' W 075°13'0 0.0
2017-Oct-02 07:30N 39°52' W 075°13'0 0.0
2017-Oct-02 07:00N 39°52' W 075°13'0 0.0
2017-Oct-02 06:30N 39°52' W 075°13'0 0.0
2017-Oct-02 06:00N 39°52' W 075°13'0 0.0
2017-Oct-02 05:30N 39°52' W 075°13'0 0.0
2017-Oct-02 05:00N 39°52' W 075°13'0 0.0
2017-Oct-02 04:30N 39°52' W 075°13'0 0.0
2017-Oct-02 04:00N 39°52' W 075°13'0 0.0
2017-Oct-02 03:30N 39°52' W 075°13'0 0.0
2017-Oct-01 14:40N 39°52' W 075°13'0 0.0
2017-Oct-01 14:30N 39°52' W 075°13'1 2.6
2017-Oct-01 14:00N 39°51' W 075°14'4 7.6
2017-Oct-01 13:30N 39°51' W 075°19'510.4
2017-Oct-01 13:00N 39°48' W 075°25'611.4
2017-Oct-01 12:30N 39°44' W 075°30'510.8
2017-Oct-01 12:00N 39°39' W 075°33'510.7
2017-Oct-01 11:30N 39°34' W 075°33'612.5
2017-Oct-01 11:00N 39°28' W 075°34'713.5
2017-Oct-01 10:30N 39°22' W 075°28'713.4
2017-Oct-01 10:00N 39°17' W 075°22'612.9
2017-Oct-01 09:30N 39°12' W 075°17'612.7
2017-Oct-01 09:00N 39°07' W 075°13'612.4
2017-Oct-01 08:30N 39°01' W 075°09'612.3
2017-Oct-01 08:00N 38°56' W 075°06'4 8.1
2017-Oct-01 07:30N 38°52' W 075°05'3 5.7
2017-Oct-01 07:00N 38°54' W 075°08'3 5.7
2017-Oct-01 06:30N 38°56' W 075°10'2 3.1
2017-Oct-01 05:59N 38°57' W 075°11'0 0.2
2017-Oct-01 05:29N 38°57' W 075°11'0 0.0
2017-Oct-01 04:59N 38°57' W 075°11'0 0.0
2017-Oct-01 04:29N 38°57' W 075°11'0 0.0
2017-Oct-01 03:41N 38°57' W 075°11'0 0.1
2017-Oct-01 03:29N 38°57' W 075°11'0 0.0
2017-Oct-01 02:59N 38°57' W 075°11'0 0.0
2017-Sep-30 01:59N 38°57' W 075°11'0 0.0
2017-Sep-30 01:29N 38°57' W 075°11'0 0.0
2017-Sep-30 00:59N 38°57' W 075°11'0 0.0
2017-Sep-30 00:29N 38°57' W 075°11'0 0.0
2017-Sep-29 23:56N 38°57' W 075°11'0 0.0
2017-Sep-29 23:29N 38°57' W 075°11'0 0.1
2017-Sep-29 22:59N 38°57' W 075°11'0 0.1
2017-Sep-29 20:11N 38°57' W 075°11'0 0.1
2017-Sep-29 19:53N 38°57' W 075°11'0 0.0
2017-Sep-29 16:53N 38°57' W 075°11'0 0.4
2017-Sep-29 16:29N 38°57' W 075°11'0 0.3
2017-Sep-29 15:59N 38°57' W 075°11'0 0.1
2017-Sep-29 15:29N 38°57' W 075°11'0 0.0
2017-Sep-29 14:59N 38°57' W 075°11'0 0.0
2017-Sep-29 14:29N 38°57' W 075°11'0 0.0
2017-Sep-29 13:59N 38°57' W 075°11'0 0.0
2017-Sep-29 13:26N 38°57' W 075°11'0 0.0
2017-Sep-29 12:59N 38°57' W 075°11'0 0.0
2017-Sep-29 12:29N 38°57' W 075°11'0 0.0
2017-Sep-29 11:59N 38°57' W 075°11'0 0.0
2017-Sep-29 11:29N 38°57' W 075°11'0 0.0
2017-Sep-29 10:59N 38°57' W 075°11'0 0.0
2017-Sep-29 10:26N 38°57' W 075°11'0 0.0
2017-Sep-29 09:59N 38°57' W 075°11'0 0.0
2017-Sep-29 09:29N 38°57' W 075°11'0 0.1
2017-Sep-29 08:59N 38°57' W 075°11'0 0.1
2017-Sep-29 08:29N 38°57' W 075°11'0 0.1
2017-Sep-29 07:59N 38°57' W 075°11'0 0.0
2017-Sep-29 07:29N 38°57' W 075°11'0 0.0
2017-Sep-29 06:56N 38°57' W 075°11'0 0.1
2017-Sep-29 06:29N 38°57' W 075°11'0 0.0
2017-Sep-29 05:50N 38°57' W 075°11'0 0.1
2017-Sep-29 05:29N 38°57' W 075°11'0 0.1
2017-Sep-29 04:59N 38°57' W 075°11'0 0.1
2017-Sep-29 04:26N 38°57' W 075°11'0 0.0
2017-Sep-29 03:59N 38°57' W 075°11'0 0.0
2017-Sep-29 03:26N 38°57' W 075°11'0 0.0
2017-Sep-29 02:56N 38°57' W 075°11'0 0.0
2017-Sep-29 02:29N 38°57' W 075°11'0 0.0
2017-Sep-29 01:59N 38°57' W 075°11'0 0.0
2017-Sep-29 01:29N 38°57' W 075°11'0 0.0
2017-Sep-29 00:59N 38°57' W 075°11'0 0.0
2017-Sep-29 00:29N 38°57' W 075°11'0 0.0
2017-Sep-28 23:59N 38°57' W 075°11'0 0.0
2017-Sep-28 23:29N 38°57' W 075°11'0 0.0
2017-Sep-28 22:56N 38°57' W 075°11'0 0.0
2017-Sep-28 22:29N 38°57' W 075°11'0 0.1
2017-Sep-28 21:59N 38°57' W 075°11'0 0.1
2017-Sep-28 21:29N 38°57' W 075°11'0 0.1
2017-Sep-28 20:59N 38°57' W 075°11'0 0.0
2017-Sep-28 20:29N 38°57' W 075°11'0 0.2
2017-Sep-28 19:59N 38°57' W 075°11'0 0.1
2017-Sep-28 19:11N 38°57' W 075°11'0 0.1
2017-Sep-28 18:56N 38°57' W 075°11'0 0.0
2017-Sep-28 17:56N 38°57' W 075°11'0 0.2
2017-Sep-28 17:29N 38°57' W 075°11'0 0.1
2017-Sep-28 16:47N 38°57' W 075°11'0 0.2
2017-Sep-28 16:26N 38°57' W 075°11'0 0.1
2017-Sep-28 15:56N 38°57' W 075°11'0 0.1
2017-Sep-28 15:29N 38°57' W 075°11'0 0.0
2017-Sep-28 14:59N 38°57' W 075°11'0 0.0
2017-Sep-28 14:29N 38°57' W 075°11'0 0.1
2017-Sep-28 13:59N 38°57' W 075°11'0 0.0
2017-Sep-28 13:29N 38°57' W 075°11'0 0.0
2017-Sep-28 12:59N 38°57' W 075°11'0 0.0
2017-Sep-28 12:29N 38°57' W 075°11'0 0.0
2017-Sep-28 11:56N 38°57' W 075°11'0 0.1
2017-Sep-28 11:29N 38°57' W 075°11'0 0.0
2017-Sep-28 10:59N 38°57' W 075°11'0 0.0
2017-Sep-28 10:29N 38°57' W 075°11'0 0.1
2017-Sep-28 09:59N 38°57' W 075°11'0 0.0
2017-Sep-28 09:29N 38°57' W 075°11'0 0.1
2017-Sep-28 08:53N 38°57' W 075°11'0 0.1
2017-Sep-28 08:23N 38°57' W 075°11'0 0.1
2017-Sep-28 07:59N 38°57' W 075°11'0 0.3
2017-Sep-28 07:29N 38°57' W 075°11'0 0.1
2017-Sep-28 06:56N 38°57' W 075°11'0 0.0
2017-Sep-28 06:29N 38°57' W 075°11'0 0.1
2017-Sep-28 05:59N 38°57' W 075°11'0 0.0
2017-Sep-28 05:29N 38°57' W 075°11'0 0.1
2017-Sep-28 04:59N 38°57' W 075°11'0 0.0
2017-Sep-28 04:23N 38°57' W 075°11'0 0.0
2017-Sep-28 03:53N 38°57' W 075°11'0 0.0
2017-Sep-28 03:29N 38°57' W 075°11'0 0.1
2017-Sep-28 02:59N 38°57' W 075°11'0 0.1
2017-Sep-28 02:29N 38°57' W 075°11'0 0.0
2017-Sep-28 01:56N 38°57' W 075°11'0 0.0
2017-Sep-28 01:29N 38°57' W 075°11'0 0.0
2017-Sep-28 00:56N 38°57' W 075°11'0 0.0
2017-Sep-28 00:29N 38°57' W 075°11'0 0.0
2017-Sep-27 23:59N 38°57' W 075°11'0 0.0
2017-Sep-27 23:29N 38°57' W 075°11'0 0.0
2017-Sep-27 22:56N 38°57' W 075°11'0 0.0
2017-Sep-27 22:29N 38°57' W 075°11'0 0.0
2017-Sep-27 21:59N 38°57' W 075°11'0 0.1
2017-Sep-27 21:29N 38°57' W 075°11'0 0.1
2017-Sep-27 20:59N 38°57' W 075°11'0 0.1
2017-Sep-27 20:26N 38°57' W 075°11'0 0.2
2017-Sep-27 19:59N 38°57' W 075°11'0 0.1
2017-Sep-27 19:26N 38°57' W 075°11'0 0.1
2017-Sep-27 18:53N 38°57' W 075°11'0 0.0
2017-Sep-27 18:29N 38°57' W 075°11'0 0.0
2017-Sep-27 17:59N 38°57' W 075°11'0 0.0
2017-Sep-27 17:29N 38°57' W 075°11'0 0.1
2017-Sep-27 16:59N 38°57' W 075°11'0 0.1
2017-Sep-27 16:26N 38°57' W 075°11'0 0.1
2017-Sep-27 15:59N 38°57' W 075°11'0 0.0
2017-Sep-27 15:29N 38°57' W 075°11'0 0.0
2017-Sep-27 14:53N 38°57' W 075°11'0 0.1
2017-Sep-27 14:29N 38°57' W 075°11'0 0.1
2017-Sep-27 13:59N 38°57' W 075°11'0 0.1
2017-Sep-27 13:23N 38°57' W 075°11'0 0.1
2017-Sep-27 12:59N 38°57' W 075°11'0 0.0
2017-Sep-27 12:29N 38°57' W 075°11'0 0.0
2017-Sep-27 11:59N 38°57' W 075°11'0 0.0
2017-Sep-27 11:23N 38°57' W 075°11'0 0.0
2017-Sep-27 10:59N 38°57' W 075°11'0 0.0
2017-Sep-27 10:29N 38°57' W 075°11'0 0.0
2017-Sep-27 09:59N 38°57' W 075°11'0 0.0
2017-Sep-27 09:29N 38°57' W 075°11'0 0.0
2017-Sep-27 08:59N 38°57' W 075°11'0 0.0
2017-Sep-27 08:29N 38°57' W 075°11'0 0.1
2017-Sep-27 07:59N 38°57' W 075°11'0 0.1
2017-Sep-27 07:29N 38°57' W 075°11'0 0.0
2017-Sep-27 06:50N 38°57' W 075°11'0 0.0
2017-Sep-27 06:26N 38°57' W 075°11'0 0.1
2017-Sep-27 05:47N 38°57' W 075°11'0 0.1
2017-Sep-27 05:23N 38°57' W 075°11'0 0.1
2017-Sep-27 04:56N 38°57' W 075°11'0 0.0
2017-Sep-27 04:29N 38°57' W 075°11'0 0.1
2017-Sep-27 03:59N 38°57' W 075°11'0 0.1
2017-Sep-27 03:23N 38°57' W 075°11'0 0.1
2017-Sep-27 02:59N 38°57' W 075°11'0 0.1
2017-Sep-27 02:26N 38°57' W 075°11'0 0.1
2017-Sep-27 01:59N 38°57' W 075°11'0 0.1
2017-Sep-27 01:29N 38°57' W 075°11'0 0.0
2017-Sep-27 00:56N 38°57' W 075°11'0 0.1
2017-Sep-27 00:26N 38°57' W 075°11'0 0.1
2017-Sep-26 23:56N 38°57' W 075°11'0 0.1
2017-Sep-26 23:29N 38°57' W 075°11'0 0.1
2017-Sep-26 22:56N 38°57' W 075°11'0 0.0
2017-Sep-26 22:29N 38°57' W 075°11'0 0.0
2017-Sep-26 21:56N 38°57' W 075°11'0 0.1
2017-Sep-26 21:26N 38°57' W 075°11'0 0.0
2017-Sep-26 20:56N 38°57' W 075°11'0 0.1
2017-Sep-26 20:29N 38°57' W 075°11'0 0.1
2017-Sep-26 19:59N 38°57' W 075°11'0 0.2
2017-Sep-26 19:29N 38°57' W 075°11'0 0.1
2017-Sep-26 18:59N 38°57' W 075°11'0 0.1
2017-Sep-26 18:29N 38°57' W 075°11'0 0.0
2017-Sep-26 17:59N 38°57' W 075°11'0 0.0
2017-Sep-26 17:23N 38°57' W 075°11'0 0.0
2017-Sep-26 16:53N 38°57' W 075°11'0 0.0
2017-Sep-26 16:23N 38°57' W 075°11'0 0.0
2017-Sep-26 15:56N 38°57' W 075°11'0 0.0
2017-Sep-26 15:26N 38°57' W 075°11'0 0.0
2017-Sep-26 14:53N 38°57' W 075°11'0 0.1
2017-Sep-26 14:17N 38°57' W 075°11'0 0.1
2017-Sep-26 13:56N 38°57' W 075°11'0 0.1
2017-Sep-26 13:29N 38°57' W 075°11'0 0.1
2017-Sep-26 12:59N 38°57' W 075°11'0 0.1
2017-Sep-26 12:29N 38°57' W 075°11'0 0.0
2017-Sep-26 11:59N 38°57' W 075°11'0 0.1
2017-Sep-26 11:29N 38°57' W 075°11'0 0.1
2017-Sep-26 10:56N 38°57' W 075°11'0 0.0
2017-Sep-26 10:29N 38°57' W 075°11'0 0.0
2017-Sep-26 09:56N 38°57' W 075°11'0 0.0
2017-Sep-26 09:29N 38°57' W 075°11'0 0.1
2017-Sep-26 08:59N 38°57' W 075°11'0 0.1
2017-Sep-26 08:26N 38°57' W 075°11'0 0.1
2017-Sep-26 07:59N 38°57' W 075°11'0 0.4
2017-Sep-26 07:26N 38°57' W 075°11'0 0.2
2017-Sep-26 06:56N 38°57' W 075°11'0 0.1
2017-Sep-26 06:29N 38°57' W 075°11'0 0.0
2017-Sep-26 05:59N 38°57' W 075°11'0 0.0
2017-Sep-26 05:11N 38°57' W 075°11'0 0.0
2017-Sep-26 04:59N 38°57' W 075°11'0 0.0
2017-Sep-26 04:29N 38°57' W 075°11'0 0.0
2017-Sep-26 03:56N 38°57' W 075°11'0 0.0
2017-Sep-26 03:29N 38°57' W 075°11'0 0.0
2017-Sep-26 02:59N 38°57' W 075°11'0 0.1
2017-Sep-26 02:29N 38°57' W 075°11'0 0.0
2017-Sep-26 01:59N 38°57' W 075°11'0 0.1
2017-Sep-26 01:29N 38°57' W 075°11'0 0.2
2017-Sep-26 00:59N 38°57' W 075°11'0 0.3
2017-Sep-26 00:29N 38°57' W 075°11'0 0.1
2017-Sep-25 23:59N 38°57' W 075°11'0 0.1
2017-Sep-25 23:29N 38°57' W 075°11'0 0.0
2017-Sep-25 22:59N 38°57' W 075°11'0 0.0
2017-Sep-25 22:29N 38°57' W 075°11'0 0.1
2017-Sep-25 21:59N 38°57' W 075°11'0 0.1
2017-Sep-25 21:29N 38°57' W 075°11'0 0.0
2017-Sep-25 20:59N 38°57' W 075°11'0 0.0
2017-Sep-25 20:29N 38°57' W 075°11'0 0.2
2017-Sep-25 19:59N 38°57' W 075°11'0 0.3
2017-Sep-25 19:29N 38°57' W 075°11'0 0.1
2017-Sep-25 18:59N 38°57' W 075°11'0 0.1
2017-Sep-25 16:47N 38°57' W 075°11'0 0.1
2017-Sep-25 16:29N 38°57' W 075°11'0 0.0
2017-Sep-25 15:47N 38°57' W 075°11'0 0.0
2017-Sep-25 15:23N 38°57' W 075°11'0 0.0
2017-Sep-25 14:59N 38°57' W 075°11'0 0.0
2017-Sep-25 14:29N 38°57' W 075°11'0 0.0
2017-Sep-25 13:59N 38°57' W 075°11'0 0.1
2017-Sep-25 13:29N 38°57' W 075°11'0 0.1
2017-Sep-25 12:59N 38°57' W 075°11'0 0.2
2017-Sep-25 12:29N 38°57' W 075°11'0 0.3
2017-Sep-25 11:59N 38°57' W 075°11'0 0.1
2017-Sep-25 11:29N 38°57' W 075°11'0 0.0
2017-Sep-25 10:59N 38°57' W 075°11'0 0.0
2017-Sep-25 10:29N 38°57' W 075°11'0 0.0
2017-Sep-25 09:59N 38°57' W 075°11'0 0.0
2017-Sep-25 09:29N 38°57' W 075°11'0 0.0
2017-Sep-25 08:59N 38°57' W 075°11'0 0.0
2017-Sep-25 08:29N 38°57' W 075°11'0 0.0
2017-Sep-25 07:59N 38°57' W 075°11'0 0.0
2017-Sep-25 07:29N 38°57' W 075°11'0 0.1
2017-Sep-25 06:56N 38°57' W 075°11'0 0.3
2017-Sep-25 06:29N 38°57' W 075°11'0 0.2
2017-Sep-25 05:59N 38°57' W 075°11'0 0.1
2017-Sep-25 05:26N 38°57' W 075°11'0 0.1
2017-Sep-25 04:59N 38°57' W 075°11'0 0.0
2017-Sep-25 04:29N 38°57' W 075°11'0 0.0
2017-Sep-25 03:59N 38°57' W 075°11'0 0.0
2017-Sep-25 03:29N 38°57' W 075°11'0 0.0
2017-Sep-25 02:56N 38°57' W 075°11'0 0.0
2017-Sep-25 02:29N 38°57' W 075°11'0 0.0
2017-Sep-25 01:56N 38°57' W 075°11'0 0.0
2017-Sep-25 01:29N 38°57' W 075°11'0 0.1
2017-Sep-25 00:59N 38°57' W 075°11'0 0.4
2017-Sep-25 00:26N 38°57' W 075°11'0 0.2
2017-Sep-24 23:59N 38°57' W 075°11'0 0.1
2017-Sep-24 23:26N 38°57' W 075°11'0 0.0
2017-Sep-24 22:59N 38°57' W 075°11'0 0.1
2017-Sep-24 22:29N 38°57' W 075°11'0 0.1
2017-Sep-24 21:59N 38°57' W 075°11'0 0.1
2017-Sep-24 21:29N 38°57' W 075°11'0 0.1
2017-Sep-24 20:59N 38°57' W 075°11'0 0.0
2017-Sep-24 20:26N 38°57' W 075°11'0 0.0
2017-Sep-24 19:59N 38°57' W 075°11'0 0.0
2017-Sep-24 19:29N 38°57' W 075°11'0 0.1
2017-Sep-24 18:59N 38°57' W 075°11'0 0.3
2017-Sep-24 18:20N 38°57' W 075°11'0 0.2
2017-Sep-24 17:59N 38°57' W 075°11'0 0.1
2017-Sep-24 16:53N 38°57' W 075°11'0 0.1
2017-Sep-24 16:26N 38°57' W 075°11'0 0.0
2017-Sep-24 15:59N 38°57' W 075°11'0 0.0
2017-Sep-24 15:29N 38°57' W 075°11'0 0.0
2017-Sep-24 14:50N 38°57' W 075°11'0 0.0
2017-Sep-24 14:29N 38°57' W 075°11'0 0.0
2017-Sep-24 13:59N 38°57' W 075°11'0 0.0
2017-Sep-24 13:29N 38°57' W 075°11'0 0.0
2017-Sep-24 12:59N 38°57' W 075°11'0 0.2
2017-Sep-24 12:29N 38°57' W 075°11'0 0.1
2017-Sep-24 11:59N 38°57' W 075°11'0 0.2
2017-Sep-24 11:29N 38°57' W 075°11'0 0.2
2017-Sep-24 10:59N 38°57' W 075°11'0 0.1
2017-Sep-24 10:23N 38°57' W 075°11'0 0.0
2017-Sep-24 09:56N 38°57' W 075°11'0 0.0
2017-Sep-24 09:29N 38°57' W 075°11'0 0.0
2017-Sep-24 08:59N 38°57' W 075°11'0 0.0
2017-Sep-24 08:29N 38°57' W 075°11'0 0.0
2017-Sep-24 07:59N 38°57' W 075°11'0 0.1
2017-Sep-24 07:29N 38°57' W 075°11'0 0.0
2017-Sep-24 06:59N 38°57' W 075°11'0 0.0
2017-Sep-24 06:29N 38°57' W 075°11'0 0.3
2017-Sep-24 05:59N 38°57' W 075°11'0 0.3
2017-Sep-24 05:26N 38°57' W 075°11'0 0.0
2017-Sep-24 04:59N 38°57' W 075°11'0 0.0
2017-Sep-24 04:29N 38°57' W 075°11'0 0.1
2017-Sep-24 03:59N 38°57' W 075°11'0 0.0
2017-Sep-24 03:29N 38°57' W 075°11'0 0.0
2017-Sep-24 02:59N 38°57' W 075°11'0 0.0
2017-Sep-24 02:29N 38°57' W 075°11'0 0.0
2017-Sep-24 01:59N 38°57' W 075°11'0 0.0
2017-Sep-24 01:29N 38°57' W 075°11'0 0.0
2017-Sep-24 00:59N 38°57' W 075°11'0 0.1
2017-Sep-24 00:26N 38°57' W 075°11'0 0.3
2017-Sep-23 23:59N 38°57' W 075°11'  

Dump ship's entire track history